Estación de Trehualemu

Ultimos registro cada 15 minutos 35
Estación Fecha / Hora Temperatura Humedad Lluvia Velocidad Dirección Radiación Presion
35 Trehualemu 02-09-2026 09:00 9,7 91 0 0 149 0 1002,6
34 Trehualemu 02-09-2026 08:30 9,7 91 0 0 149 0 1002,9
33 Trehualemu 02-09-2026 08:15 9,7 91 0 0 149 0 1003,5
32 Trehualemu 02-09-2026 08:00 9,7 92 0 0 150 0 1003,5
31 Trehualemu 02-09-2026 07:45 9,7 92 0 0 150 0 1003,5
30 Trehualemu 02-09-2026 07:30 9,7 92 0 0 150 0 1003,7
29 Trehualemu 02-09-2026 07:15 9,7 92 0 0 150 0 1003,9
28 Trehualemu 02-09-2026 07:00 9,8 92 0 0 150 0 1003,8
27 Trehualemu 02-09-2026 06:45 9,8 92 0 0 150 0 1004
26 Trehualemu 02-09-2026 06:30 9,8 92 0 0 150 0 1004
25 Trehualemu 02-09-2026 06:15 9,8 92 0 0 150 0 1004,1
24 Trehualemu 02-09-2026 06:00 9,7 92 0 0 152 0 1004,4
23 Trehualemu 02-09-2026 05:45 9,7 92 0 0 152 0 1004,6
22 Trehualemu 02-09-2026 05:30 9,7 92 0 0 152 0 1004,7
21 Trehualemu 02-09-2026 05:15 9,8 91 0 0 152 0 1004,9
20 Trehualemu 02-09-2026 05:00 9,8 91 0 0 163 0 1004,7
19 Trehualemu 02-09-2026 04:45 9,8 91 0 0 163 0 1005,3
18 Trehualemu 02-09-2026 04:30 9,8 91 0 0 163 0 1005,6
17 Trehualemu 02-09-2026 04:15 9,8 90 0 0 163 0 1005,5
16 Trehualemu 02-09-2026 04:00 10,2 89 0 0 163 0 1005,1
15 Trehualemu 02-09-2026 03:45 10,7 89 0 0 163 0 1005,4
14 Trehualemu 02-09-2026 03:30 10,8 88 0 0 164 0 1005,5
13 Trehualemu 02-09-2026 03:15 10,9 88 0 0 171 0 1005,9
12 Trehualemu 02-09-2026 03:00 11 88 0 0 171 0 1006,1
11 Trehualemu 02-09-2026 02:45 11,1 87 0 0 255 0 1006,4
10 Trehualemu 02-09-2026 02:30 11,3 84 0 0 257 0 1006,3
9 Trehualemu 02-09-2026 02:15 11,4 83 0 0 257 0 1006,4
8 Trehualemu 02-09-2026 02:00 11,6 82 0 0 257 0 1006,2
7 Trehualemu 02-09-2026 01:45 11,9 85 0 0 259 0 1006,3
6 Trehualemu 02-09-2026 01:30 12 85 0 0 281 0 1006,5
5 Trehualemu 02-09-2026 01:00 12,2 85 0 0 281 0 1006,6
4 Trehualemu 02-09-2026 00:45 12,6 87 0 0 281 0 1006,2
3 Trehualemu 02-09-2026 00:30 12,9 87 0 0 281 0 1006
2 Trehualemu 02-09-2026 00:15 13,2 86 0 0 281 0 1005,9
1 Trehualemu 02-09-2026 00:00 13,5 84 0 0 281 0 1005,8